createdAt,value
2023-04-04T00:00:22.364Z,5.40
2023-04-04T00:02:50.063Z,4.33
2023-04-04T00:05:17.088Z,4.77
2023-04-04T00:07:47.327Z,4.23
2023-04-04T00:10:14.639Z,4.27
2023-04-04T00:12:43.087Z,3.57
2023-04-04T00:15:10.684Z,4.47
2023-04-04T00:17:37.619Z,3.40
2023-04-04T00:20:05.101Z,4.80
2023-04-04T00:22:32.156Z,3.70
2023-04-04T00:24:59.214Z,2.90
2023-04-04T00:27:26.304Z,3.57
2023-04-04T00:29:53.516Z,4.23
2023-04-04T00:32:20.786Z,4.03
2023-04-04T00:34:53.743Z,3.30
2023-04-04T00:37:21.444Z,4.30
2023-04-04T00:39:49.353Z,4.07
2023-04-04T00:42:16.395Z,3.97
2023-04-04T00:44:43.308Z,3.90
2023-04-04T00:47:10.231Z,4.00
2023-04-04T00:49:37.865Z,3.37
2023-04-04T00:52:07.315Z,4.03
2023-04-04T00:54:35.572Z,3.97
2023-04-04T00:57:04.185Z,3.87
2023-04-04T00:59:32.598Z,3.97
2023-04-04T01:02:00.742Z,3.43
2023-04-04T01:04:31.564Z,2.97
2023-04-04T01:06:59.662Z,4.20
2023-04-04T01:09:27.340Z,2.93
2023-04-04T01:11:56.787Z,3.60
2023-04-04T01:14:24.999Z,2.53
2023-04-04T01:16:52.393Z,3.47
2023-04-04T01:19:50.029Z,3.20
2023-04-04T01:22:21.413Z,4.50
2023-04-04T01:24:49.277Z,4.20
2023-04-04T01:27:16.702Z,4.33
2023-04-04T01:29:52.153Z,4.10
2023-04-04T01:32:23.280Z,3.83
2023-04-04T01:35:38.934Z,4.40
2023-04-04T01:38:23.423Z,3.43
2023-04-04T01:40:55.444Z,3.30
2023-04-04T01:43:23.551Z,3.40
2023-04-04T01:45:50.857Z,3.67
2023-04-04T01:48:18.776Z,3.67
2023-04-04T01:50:51.120Z,3.37
2023-04-04T01:53:18.154Z,3.10
2023-04-04T01:55:45.235Z,4.53
2023-04-04T01:58:12.381Z,4.47
2023-04-04T02:00:39.718Z,4.33
2023-04-04T02:03:06.844Z,4.90
2023-04-04T02:05:33.901Z,4.43
2023-04-04T02:08:01.547Z,3.77
2023-04-04T02:10:40.383Z,3.40
2023-04-04T02:13:07.417Z,4.03
2023-04-04T02:15:35.509Z,3.80
2023-04-04T02:18:02.560Z,4.70
2023-04-04T02:20:29.789Z,4.83
2023-04-04T02:22:57.061Z,5.17
2023-04-04T02:25:25.428Z,4.70
2023-04-04T02:27:52.378Z,5.47
2023-04-04T02:30:20.730Z,5.80
2023-04-04T02:32:50.285Z,5.80
2023-04-04T02:35:19.577Z,5.67
2023-04-04T02:37:49.826Z,5.33
2023-04-04T02:40:23.824Z,5.07
2023-04-04T02:42:50.951Z,4.60
2023-04-04T02:45:18.216Z,5.60
2023-04-04T02:47:53.818Z,4.70
2023-04-04T02:50:26.315Z,5.40
2023-04-04T02:53:04.493Z,5.80
2023-04-04T02:55:34.199Z,4.43
2023-04-04T02:58:01.940Z,5.03
2023-04-04T03:00:29.122Z,4.53
2023-04-04T03:02:58.264Z,4.10
2023-04-04T03:05:35.410Z,4.20
2023-04-04T03:08:02.964Z,4.40
2023-04-04T03:10:30.454Z,3.93
2023-04-04T03:12:57.985Z,4.27
2023-04-04T03:15:27.590Z,3.23
2023-04-04T03:17:54.690Z,3.77
2023-04-04T03:20:26.315Z,3.80
2023-04-04T03:22:53.271Z,3.60
2023-04-04T03:25:20.887Z,3.73
2023-04-04T03:27:47.817Z,3.47
2023-04-04T03:30:21.196Z,3.33
2023-04-04T03:32:48.620Z,3.57
2023-04-04T03:35:16.250Z,3.50
2023-04-04T03:37:43.175Z,4.00
2023-04-04T03:40:10.612Z,3.60
2023-04-04T03:42:37.907Z,3.00
2023-04-04T03:45:09.627Z,3.70
2023-04-04T03:47:37.609Z,3.90
2023-04-04T03:50:04.913Z,3.50
2023-04-04T03:52:39.784Z,3.40
2023-04-04T03:55:10.273Z,4.10
2023-04-04T03:57:37.681Z,3.37
2023-04-04T04:00:09.745Z,4.13
2023-04-04T04:02:40.085Z,3.43
2023-04-04T04:05:09.306Z,4.33
2023-04-04T04:07:37.274Z,3.40
2023-04-04T04:10:05.432Z,3.10
2023-04-04T04:12:32.978Z,3.90
2023-04-04T04:14:59.890Z,3.73
2023-04-04T04:17:28.732Z,3.30
2023-04-04T04:19:56.339Z,4.10
2023-04-04T04:22:24.131Z,3.77
2023-04-04T04:24:51.227Z,4.70
2023-04-04T04:27:19.089Z,4.87
2023-04-04T04:29:46.243Z,3.53
2023-04-04T04:32:17.659Z,3.73
2023-04-04T04:34:49.053Z,3.50
2023-04-04T04:37:17.889Z,3.10
2023-04-04T04:39:50.541Z,3.43
2023-04-04T04:42:29.327Z,2.80
2023-04-04T04:44:59.358Z,3.10
2023-04-04T04:47:26.377Z,3.47
2023-04-04T04:49:53.312Z,3.30
2023-04-04T04:52:32.027Z,2.90
2023-04-04T04:54:59.068Z,3.30
2023-04-04T04:57:27.493Z,3.50
2023-04-04T04:59:56.017Z,3.50
2023-04-04T05:02:26.197Z,4.07
2023-04-04T05:04:53.123Z,4.23
2023-04-04T05:07:20.632Z,4.00
2023-04-04T05:09:48.923Z,7.93
2023-04-04T05:12:17.994Z,5.20
2023-04-04T05:14:47.915Z,4.60
2023-04-04T05:17:16.181Z,4.10
2023-04-04T05:19:43.639Z,4.00
2023-04-04T05:22:15.181Z,3.47
2023-04-04T05:24:48.958Z,4.03
2023-04-04T05:27:20.476Z,3.40
2023-04-04T05:29:53.765Z,3.57
2023-04-04T05:32:22.133Z,3.50
2023-04-04T05:34:57.677Z,3.40
2023-04-04T05:37:24.658Z,2.93
2023-04-04T05:39:51.915Z,3.67
2023-04-04T05:42:18.924Z,4.27
2023-04-04T05:44:50.306Z,3.87
2023-04-04T05:47:18.313Z,3.53
2023-04-04T05:49:47.923Z,3.53
2023-04-04T05:52:14.865Z,3.07
2023-04-04T05:54:42.195Z,2.80
2023-04-04T05:57:15.212Z,2.90
2023-04-04T05:59:45.896Z,3.10
2023-04-04T06:02:15.264Z,3.50
2023-04-04T06:04:47.505Z,3.07
2023-04-04T06:07:20.281Z,1.93
2023-04-04T06:09:47.185Z,2.70
2023-04-04T06:12:14.070Z,4.10
2023-04-04T06:14:41.646Z,2.87
2023-04-04T06:17:09.529Z,2.97
2023-04-04T06:19:36.431Z,2.77
2023-04-04T06:22:03.479Z,2.80
2023-04-04T06:24:34.098Z,3.50
2023-04-04T06:27:02.670Z,3.20
2023-04-04T06:29:29.611Z,2.97
2023-04-04T06:31:59.462Z,2.67
2023-04-04T06:34:35.597Z,3.37
2023-04-04T06:37:03.496Z,2.63
2023-04-04T06:39:36.662Z,3.13
2023-04-04T06:42:08.522Z,3.23
2023-04-04T06:44:36.642Z,2.80
2023-04-04T06:47:03.870Z,2.97
2023-04-04T06:49:30.813Z,2.70
2023-04-04T06:51:58.735Z,2.70
2023-04-04T06:54:25.731Z,3.40
2023-04-04T06:56:53.159Z,3.30
2023-04-04T06:59:20.759Z,3.27
2023-04-04T07:01:47.675Z,3.10
2023-04-04T07:04:14.542Z,3.67
2023-04-04T07:06:42.193Z,3.20
2023-04-04T07:09:15.448Z,2.93
2023-04-04T07:11:49.115Z,3.80
2023-04-04T07:14:16.056Z,2.90
2023-04-04T07:16:43.452Z,2.80
2023-04-04T07:19:10.368Z,2.80
2023-04-04T07:21:37.326Z,2.10
2023-04-04T07:24:04.303Z,2.43
2023-04-04T07:26:31.513Z,2.27
2023-04-04T07:28:58.395Z,2.13
2023-04-04T07:31:25.317Z,1.50
2023-04-04T07:33:54.068Z,1.50
2023-04-04T07:36:21.299Z,1.40
2023-04-04T07:38:48.874Z,1.80
2023-04-04T07:41:15.906Z,1.40
2023-04-04T07:43:42.790Z,1.53
2023-04-04T07:46:09.692Z,2.20
2023-04-04T07:48:36.612Z,2.03
2023-04-04T07:51:04.763Z,1.60
2023-04-04T07:53:32.200Z,1.50
2023-04-04T07:55:59.111Z,2.00
2023-04-04T07:58:26.154Z,1.33
2023-04-04T08:00:53.109Z,2.23
2023-04-04T08:03:20.099Z,1.93
2023-04-04T08:05:47.182Z,1.87
2023-04-04T08:08:14.060Z,2.13
2023-04-04T08:10:41.184Z,2.30
2023-04-04T08:13:10.047Z,1.77
2023-04-04T08:15:37.522Z,2.00
2023-04-04T08:18:04.963Z,2.07
2023-04-04T08:20:31.978Z,1.77
2023-04-04T08:22:58.824Z,1.90
2023-04-04T08:25:25.682Z,2.40
2023-04-04T08:27:52.535Z,1.50
2023-04-04T08:30:19.482Z,1.70
2023-04-04T08:32:46.411Z,1.80
2023-04-04T08:35:13.583Z,1.93
2023-04-04T08:37:47.083Z,2.40
2023-04-04T08:40:14.606Z,1.97
2023-04-04T08:42:46.169Z,2.10
2023-04-04T08:45:17.159Z,2.10
2023-04-04T08:47:44.602Z,1.93
2023-04-04T08:50:12.195Z,1.67
2023-04-04T08:52:40.645Z,1.73
2023-04-04T08:55:08.469Z,2.17
2023-04-04T08:57:36.007Z,1.57
2023-04-04T09:00:06.224Z,2.20
2023-04-04T09:02:57.847Z,2.53
2023-04-04T09:05:25.687Z,2.27
2023-04-04T09:07:54.047Z,1.87
2023-04-04T09:10:21.453Z,1.87
2023-04-04T09:12:51.776Z,1.80
2023-04-04T09:15:18.737Z,2.30
2023-04-04T09:17:45.774Z,1.83
2023-04-04T09:20:35.823Z,2.33
2023-04-04T09:23:06.564Z,1.83
2023-04-04T09:25:33.868Z,2.10
2023-04-04T09:28:03.012Z,2.10
2023-04-04T09:30:29.878Z,1.90
2023-04-04T09:32:57.777Z,1.70
2023-04-04T09:35:27.292Z,2.07
2023-04-04T09:37:54.188Z,2.30
2023-04-04T09:40:23.962Z,1.87
2023-04-04T09:42:51.011Z,1.70
2023-04-04T09:45:29.405Z,2.47
2023-04-04T09:47:59.693Z,2.10
2023-04-04T09:50:28.877Z,2.67
2023-04-04T09:52:59.064Z,2.30
2023-04-04T09:55:38.442Z,2.87
2023-04-04T09:58:16.096Z,1.77
2023-04-04T10:00:48.452Z,2.33
2023-04-04T10:03:21.742Z,2.40
2023-04-04T10:06:01.317Z,1.87
2023-04-04T10:08:29.357Z,2.27
2023-04-04T10:13:37.143Z,1.93
2023-04-04T10:16:04.793Z,1.77
2023-04-04T10:18:34.697Z,2.33
2023-04-04T10:23:38.856Z,2.47
2023-04-04T10:26:06.214Z,2.20
2023-04-04T10:28:34.395Z,3.47
2023-04-04T10:31:09.990Z,3.30
2023-04-04T10:34:12.613Z,2.30
2023-04-04T10:36:49.290Z,3.27
2023-04-04T10:39:26.419Z,2.03
2023-04-04T10:41:53.790Z,2.47
2023-04-04T10:44:40.620Z,2.90
2023-04-04T10:47:17.407Z,2.73
2023-04-04T10:49:45.810Z,3.47
2023-04-04T10:52:24.447Z,2.30
2023-04-04T10:54:56.812Z,2.77
2023-04-04T10:57:24.135Z,2.57
2023-04-04T11:00:26.232Z,2.50
2023-04-04T11:02:53.067Z,3.53
2023-04-04T11:05:40.735Z,2.50
2023-04-04T11:08:10.916Z,3.00
2023-04-04T11:10:43.228Z,2.80
2023-04-04T11:13:23.578Z,2.83
2023-04-04T11:16:07.611Z,2.57
2023-04-04T11:18:43.698Z,2.47
2023-04-04T11:21:27.952Z,3.20
2023-04-04T11:23:54.696Z,2.60
2023-04-04T11:26:33.540Z,2.83
2023-04-04T11:29:02.844Z,2.90
2023-04-04T11:31:40.427Z,2.40
2023-04-04T11:34:10.196Z,3.20
2023-04-04T11:36:37.060Z,2.23
2023-04-04T11:39:06.769Z,2.70
2023-04-04T11:42:04.029Z,2.30
2023-04-04T11:44:33.344Z,2.47
2023-04-04T11:47:11.544Z,2.83
2023-04-04T11:49:41.595Z,3.23
2023-04-04T11:52:16.464Z,2.47
2023-04-04T11:54:46.674Z,3.00
2023-04-04T11:57:15.815Z,2.50
2023-04-04T11:59:48.554Z,2.70
2023-04-04T12:02:34.217Z,2.80
2023-04-04T12:05:01.638Z,2.37
2023-04-04T12:07:31.760Z,2.50
2023-04-04T12:09:58.865Z,2.60
2023-04-04T12:12:28.334Z,3.10
2023-04-04T12:15:03.416Z,3.07
2023-04-04T12:17:43.450Z,3.10
2023-04-04T12:20:11.239Z,2.87
2023-04-04T12:22:38.594Z,2.80
2023-04-04T12:25:06.255Z,2.47
2023-04-04T12:27:33.945Z,2.40
2023-04-04T12:30:01.502Z,2.70
2023-04-04T12:32:28.546Z,2.30
2023-04-04T12:35:01.239Z,2.10
2023-04-04T12:37:31.157Z,3.33
2023-04-04T12:39:58.433Z,3.03
2023-04-04T12:42:26.049Z,2.37
2023-04-04T12:44:54.652Z,3.00
2023-04-04T12:47:24.532Z,2.77
2023-04-04T12:49:57.157Z,2.63
2023-04-04T12:52:32.085Z,2.40
2023-04-04T12:55:08.503Z,3.17
2023-04-04T12:57:36.861Z,2.70
2023-04-04T13:00:07.714Z,2.53
2023-04-04T13:02:36.858Z,2.20
2023-04-04T13:05:07.121Z,2.20
2023-04-04T13:07:44.530Z,2.60
2023-04-04T13:10:14.993Z,2.60
2023-04-04T13:13:00.215Z,3.00
2023-04-04T13:15:51.762Z,2.40
2023-04-04T13:18:21.705Z,2.63
2023-04-04T13:20:49.647Z,2.53
2023-04-04T13:23:16.745Z,3.10
2023-04-04T13:25:43.850Z,2.13
2023-04-04T13:28:11.645Z,2.90
2023-04-04T13:30:43.433Z,2.27
2023-04-04T13:33:10.496Z,2.60
2023-04-04T13:35:38.795Z,2.53
2023-04-04T13:38:06.014Z,2.80
2023-04-04T13:40:32.943Z,2.37
2023-04-04T13:42:59.839Z,2.63
2023-04-04T13:45:26.786Z,1.80
2023-04-04T13:47:53.814Z,3.00
2023-04-04T13:50:22.267Z,2.80
2023-04-04T13:52:51.885Z,2.70
2023-04-04T13:55:18.800Z,3.00
2023-04-04T13:57:46.107Z,2.50
2023-04-04T14:00:14.335Z,2.13
2023-04-04T14:02:41.892Z,2.40
2023-04-04T14:05:09.082Z,3.03
2023-04-04T14:07:38.191Z,2.87
2023-04-04T14:10:05.909Z,1.73
2023-04-04T14:12:32.834Z,2.47
2023-04-04T14:14:59.711Z,2.00
2023-04-04T14:17:27.255Z,2.13
2023-04-04T14:19:54.134Z,2.30
2023-04-04T14:22:21.346Z,2.30
2023-04-04T14:24:48.261Z,2.13
2023-04-04T14:27:15.307Z,2.20
2023-04-04T14:29:42.188Z,1.87
2023-04-04T14:32:11.094Z,2.33
2023-04-04T14:34:38.002Z,2.20
2023-04-04T14:37:05.192Z,1.83
2023-04-04T14:39:33.185Z,2.23
2023-04-04T14:42:00.443Z,1.90
2023-04-04T14:44:27.450Z,1.57
2023-04-04T14:46:54.473Z,1.90
2023-04-04T14:49:21.712Z,2.20
2023-04-04T14:51:48.638Z,2.77
2023-04-04T14:54:15.529Z,2.90
2023-04-04T14:56:43.027Z,2.10
2023-04-04T14:59:09.971Z,1.60
2023-04-04T15:01:37.217Z,1.47
2023-04-04T15:04:04.136Z,1.50
2023-04-04T15:06:36.695Z,1.40
2023-04-04T15:09:06.676Z,1.50
2023-04-04T15:11:35.541Z,1.50
2023-04-04T15:14:02.457Z,1.40
2023-04-04T15:16:32.972Z,1.90
2023-04-04T15:19:00.741Z,1.47
2023-04-04T15:21:28.504Z,2.17
2023-04-04T15:23:55.525Z,1.40
2023-04-04T15:26:22.730Z,1.50
2023-04-04T15:28:49.659Z,1.40
2023-04-04T15:31:17.049Z,2.27
2023-04-04T15:33:43.961Z,1.90
2023-04-04T15:36:11.089Z,1.63
2023-04-04T15:38:38.041Z,2.00
2023-04-04T15:41:09.176Z,1.83
2023-04-04T15:43:37.028Z,2.33
2023-04-04T15:46:04.177Z,2.10
2023-04-04T15:48:31.043Z,2.13
2023-04-04T15:51:02.417Z,1.43
2023-04-04T15:53:31.025Z,1.87
2023-04-04T15:55:58.903Z,1.90
2023-04-04T15:58:26.435Z,2.10
2023-04-04T16:00:53.870Z,2.77
2023-04-04T16:03:20.877Z,3.17
2023-04-04T16:05:48.702Z,2.37
2023-04-04T16:08:15.820Z,1.80
2023-04-04T16:10:44.139Z,2.70
2023-04-04T16:13:12.724Z,2.03
2023-04-04T16:15:39.697Z,2.30
2023-04-04T16:18:07.162Z,1.93
2023-04-04T16:20:34.424Z,1.93
2023-04-04T16:23:01.335Z,1.13
2023-04-04T16:25:28.292Z,1.23
2023-04-04T16:27:55.492Z,1.40
2023-04-04T16:30:22.366Z,1.83
2023-04-04T16:32:49.516Z,1.47
2023-04-04T16:35:16.527Z,1.90
2023-04-04T16:37:43.423Z,1.50
2023-04-04T16:40:12.338Z,1.10
2023-04-04T16:42:40.582Z,1.27
2023-04-04T16:45:09.237Z,1.90
2023-04-04T16:47:36.842Z,1.23
2023-04-04T16:50:06.006Z,1.90
2023-04-04T16:52:32.996Z,1.60
2023-04-04T16:54:59.939Z,1.67
2023-04-04T16:57:27.351Z,1.73
2023-04-04T16:59:54.316Z,1.50
2023-04-04T17:02:21.310Z,1.13
2023-04-04T17:04:48.220Z,1.43
2023-04-04T17:07:15.133Z,1.87
2023-04-04T17:09:42.015Z,1.53
2023-04-04T17:12:09.368Z,1.50
2023-04-04T17:14:37.251Z,1.30
2023-04-04T17:17:05.453Z,1.80
2023-04-04T17:19:34.831Z,1.63
2023-04-04T17:22:02.256Z,1.80
2023-04-04T17:24:29.213Z,2.17
2023-04-04T17:26:59.705Z,1.33
2023-04-04T17:29:27.009Z,2.10
2023-04-04T17:31:56.115Z,1.93
2023-04-04T17:34:23.423Z,1.67
2023-04-04T17:36:51.641Z,1.90
2023-04-04T17:39:19.053Z,2.00
2023-04-04T17:41:49.313Z,2.10
2023-04-04T17:44:17.330Z,1.70
2023-04-04T17:46:45.138Z,2.60
2023-04-04T17:49:12.915Z,1.90
2023-04-04T17:51:39.826Z,2.20
2023-04-04T17:54:06.760Z,1.60
2023-04-04T17:56:33.744Z,1.57
2023-04-04T17:59:00.822Z,1.60
2023-04-04T18:01:29.414Z,2.07
2023-04-04T18:03:57.970Z,1.60
2023-04-04T18:06:25.132Z,1.70
2023-04-04T18:08:52.096Z,1.67
2023-04-04T18:11:19.027Z,1.80
2023-04-04T18:13:45.968Z,2.73
2023-04-04T18:16:13.317Z,1.70
2023-04-04T18:18:40.573Z,1.67
2023-04-04T18:21:08.430Z,2.03
2023-04-04T18:23:35.641Z,2.40
2023-04-04T18:26:02.672Z,2.50
2023-04-04T18:28:29.659Z,2.03
2023-04-04T18:30:56.626Z,1.93
2023-04-04T18:33:24.979Z,2.33
2023-04-04T18:35:51.929Z,2.47
2023-04-04T18:38:19.311Z,3.10
2023-04-04T18:40:46.570Z,2.27
2023-04-04T18:43:13.779Z,2.50
2023-04-04T18:45:41.568Z,2.57
2023-04-04T18:48:09.131Z,3.10
2023-04-04T18:50:36.563Z,2.53
2023-04-04T18:53:03.491Z,3.20
2023-04-04T18:55:30.500Z,2.30
2023-04-04T18:57:57.901Z,2.50
2023-04-04T19:00:25.548Z,2.77
2023-04-04T19:02:53.090Z,2.70
2023-04-04T19:05:24.947Z,3.37
2023-04-04T19:07:54.338Z,3.00
2023-04-04T19:10:22.137Z,2.50
2023-04-04T19:12:49.178Z,3.20
2023-04-04T19:15:16.380Z,3.60
2023-04-04T19:17:43.447Z,4.13
2023-04-04T19:20:11.770Z,4.23
2023-04-04T19:22:38.710Z,4.30
2023-04-04T19:25:06.253Z,4.80
2023-04-04T19:27:33.163Z,4.00
2023-04-04T19:30:00.059Z,3.50
2023-04-04T19:32:28.461Z,3.13
2023-04-04T19:34:56.341Z,3.40
2023-04-04T19:37:24.455Z,3.70
2023-04-04T19:39:51.358Z,3.13
2023-04-04T19:42:26.113Z,3.50
2023-04-04T19:44:53.151Z,3.70
2023-04-04T19:47:20.713Z,4.13
2023-04-04T19:49:51.328Z,4.20
2023-04-04T19:52:23.919Z,4.67
2023-04-04T19:54:50.905Z,4.47
2023-04-04T19:57:20.713Z,3.97
2023-04-04T20:00:09.235Z,4.20
2023-04-04T20:02:51.491Z,4.00
2023-04-04T20:05:32.134Z,4.10
2023-04-04T20:08:00.915Z,4.07
2023-04-04T20:10:40.171Z,4.97
2023-04-04T20:13:08.133Z,4.70
2023-04-04T20:15:47.426Z,4.93
2023-04-04T20:18:25.776Z,4.90
2023-04-04T20:21:10.859Z,6.60
2023-04-04T20:23:56.140Z,7.30
2023-04-04T20:26:51.768Z,7.10
2023-04-04T20:29:21.845Z,6.23
2023-04-04T20:32:04.065Z,7.63
2023-04-04T20:34:49.219Z,6.40
2023-04-04T20:37:22.119Z,6.30
2023-04-04T20:40:00.684Z,5.60
2023-04-04T20:42:34.030Z,5.20
2023-04-04T20:45:10.134Z,6.90
2023-04-04T20:47:49.932Z,5.50
2023-04-04T20:50:16.847Z,5.50
2023-04-04T20:53:01.590Z,6.17
2023-04-04T20:55:31.067Z,6.20
2023-04-04T20:58:18.608Z,7.20
2023-04-04T21:00:45.489Z,6.80
2023-04-04T21:03:37.372Z,6.37
2023-04-04T21:06:15.974Z,5.33
2023-04-04T21:08:52.391Z,4.50
2023-04-04T21:11:29.978Z,3.97
2023-04-04T21:13:57.358Z,4.30
2023-04-04T21:16:27.275Z,4.53
2023-04-04T21:19:00.335Z,3.63
2023-04-04T21:21:28.458Z,3.87
2023-04-04T21:24:10.591Z,3.70
2023-04-04T21:26:39.019Z,4.23
2023-04-04T21:29:16.800Z,4.40
2023-04-04T21:31:43.959Z,4.80
2023-04-04T21:34:25.722Z,4.30
2023-04-04T21:36:56.400Z,3.90
2023-04-04T21:39:30.485Z,4.80
2023-04-04T21:42:01.546Z,4.90
2023-04-04T21:44:30.189Z,4.47
2023-04-04T21:46:57.425Z,4.53
2023-04-04T21:49:25.504Z,4.50
2023-04-04T21:51:52.778Z,5.13
2023-04-04T21:54:19.878Z,4.70
2023-04-04T21:56:46.828Z,6.13
2023-04-04T21:59:13.800Z,5.40
2023-04-04T22:01:41.014Z,5.03
2023-04-04T22:04:07.985Z,5.57
2023-04-04T22:06:35.050Z,6.50
2023-04-04T22:09:03.024Z,5.17
2023-04-04T22:11:30.264Z,5.37
2023-04-04T22:14:04.181Z,4.33
2023-04-04T22:16:31.942Z,4.67
2023-04-04T22:19:01.385Z,4.20
2023-04-04T22:21:28.760Z,4.33
2023-04-04T22:24:02.314Z,4.20
2023-04-04T22:26:32.036Z,3.90
2023-04-04T22:29:04.043Z,3.90
2023-04-04T22:31:34.311Z,3.70
2023-04-04T22:34:03.154Z,4.10
2023-04-04T22:36:30.694Z,2.83
2023-04-04T22:38:58.101Z,3.67
2023-04-04T22:41:29.556Z,3.50
2023-04-04T22:43:57.762Z,3.17
2023-04-04T22:46:26.065Z,2.60
2023-04-04T22:49:04.345Z,2.97
2023-04-04T22:51:34.955Z,3.17
2023-04-04T22:54:02.926Z,2.80
2023-04-04T22:56:29.807Z,3.23
2023-04-04T22:58:56.755Z,3.47
2023-04-04T23:01:23.733Z,3.13
2023-04-04T23:03:50.667Z,3.30
2023-04-04T23:06:19.979Z,3.40
2023-04-04T23:08:47.076Z,3.30
2023-04-04T23:11:14.049Z,3.17
2023-04-04T23:13:43.186Z,3.00
2023-04-04T23:16:10.142Z,3.00
2023-04-04T23:18:37.045Z,3.20
2023-04-04T23:21:04.212Z,3.23
2023-04-04T23:23:31.298Z,3.20
2023-04-04T23:25:58.345Z,3.10
2023-04-04T23:28:29.172Z,4.07
2023-04-04T23:30:56.156Z,3.07
2023-04-04T23:33:23.066Z,3.47
2023-04-04T23:35:49.999Z,3.93
2023-04-04T23:38:16.965Z,3.70
2023-04-04T23:40:43.858Z,3.97
2023-04-04T23:43:10.777Z,3.67
2023-04-04T23:45:40.268Z,3.73
2023-04-04T23:48:07.339Z,4.13
2023-04-04T23:50:34.274Z,3.77
2023-04-04T23:53:01.158Z,3.70
2023-04-04T23:55:28.043Z,4.23
2023-04-04T23:57:56.257Z,3.20
